Terminal Aerodrome Forecast
Issued by NWS

Home | Current Version | Previous Version | Text Only | Print | Product List | Glossary On
Versions: 1 2 3 4 5 6 7 8 9 10 11 12 13
000
FTUS43 KSGF 291100
TAFBBG
TAF
KBBG 291135Z 2912/3012 15004KT P6SM SCT090
     FM291500 16008KT P6SM VCSH SCT050 BKN090
      TEMPO 2917/2921 -TSRA SCT035CB OVC060
     FM292100 17008KT P6SM -SHRA VCTS BKN050CB
     FM300100 15007KT P6SM VCSH SCT030 BKN090=

USA.gov is the U.S. government's official web portal to all federal, state and local government web resources and services.